< Cyclone 199406 1994 Season Cyclone 199408 >
Cyclone 199407 (THEODORE)
General InformationTrack Information on Google MapsDetailed Wind InformationList of All Images || ResourceGoogle EarthGE AnimationAtom FeedGeoJSON
Detalied Best Track (Time Zone = UTC)
Year Month Day Hour Lat. Long. Pressure (hPa) Wind (kt) Class Image Chart
1994 2 22 06 -7.8 154.6 998 25 2 Image --
1994 2 22 12 -8.1 154.6 994 30 2 Image --
1994 2 22 18 -8.8 154.6 992 40 3 Image --
1994 2 23 00 -9.6 154.6 990 45 3 Image --
1994 2 23 06 -10.2 154.7 988 50 4 Image --
1994 2 23 12 -10.7 154.6 988 50 4 Image --
1994 2 23 16 -11.1 154.4 987 60 4 Image --
1994 2 24 00 -11.8 154.2 965 75 5 Image --
1994 2 24 06 -11.9 154.3 945 90 5 Image --
1994 2 24 12 -12.5 154.3 945 90 5 Image --
1994 2 24 18 -12.6 154.8 945 90 5 Image --
1994 2 25 00 -12.9 155.7 935 105 5 Image --
1994 2 25 06 -13.4 156.5 910 115 5 Image --
1994 2 25 12 -14.1 157.3 915 110 5 Image --
1994 2 25 18 -14.7 158.1 915 100 5 Image --
1994 2 26 00 -15.5 159.3 930 100 5 Image --
1994 2 26 06 -16.4 161.1 935 100 5 Image --
1994 2 26 12 -17.9 162.8 935 100 5 Image --
1994 2 26 18 -19.6 164.5 935 100 5 Image --
1994 2 27 00 -21.5 167.1 935 100 5 Image --
< Cyclone 199406 1994 Season Cyclone 199408 >

Help